sensor_id;sensor_type;location;lat;lon;timestamp;P1;durP1;ratioP1;P2;durP2;ratioP2
50789;SDS011;37287;47.554;7.844;2024-02-04T00:00:12;1.70;;;1.60;;
50789;SDS011;37287;47.554;7.844;2024-02-04T00:02:39;1.65;;;1.55;;
50789;SDS011;37287;47.554;7.844;2024-02-04T00:05:06;1.55;;;1.45;;
50789;SDS011;37287;47.554;7.844;2024-02-04T00:07:33;1.70;;;1.60;;
50789;SDS011;37287;47.554;7.844;2024-02-04T00:10:00;2.17;;;1.80;;
50789;SDS011;37287;47.554;7.844;2024-02-04T00:12:26;1.60;;;1.50;;
50789;SDS011;37287;47.554;7.844;2024-02-04T00:14:53;2.00;;;1.80;;
50789;SDS011;37287;47.554;7.844;2024-02-04T00:17:20;1.95;;;1.45;;
50789;SDS011;37287;47.554;7.844;2024-02-04T00:19:46;1.50;;;1.40;;
50789;SDS011;37287;47.554;7.844;2024-02-04T00:22:13;1.70;;;1.60;;
50789;SDS011;37287;47.554;7.844;2024-02-04T00:24:40;1.70;;;1.60;;
50789;SDS011;37287;47.554;7.844;2024-02-04T00:27:07;1.45;;;1.35;;
50789;SDS011;37287;47.554;7.844;2024-02-04T00:29:33;1.60;;;1.50;;
50789;SDS011;37287;47.554;7.844;2024-02-04T00:32:00;1.85;;;1.75;;
50789;SDS011;37287;47.554;7.844;2024-02-04T00:34:27;4.05;;;1.67;;
50789;SDS011;37287;47.554;7.844;2024-02-04T00:36:53;1.70;;;1.60;;
50789;SDS011;37287;47.554;7.844;2024-02-04T00:39:20;1.50;;;1.40;;
50789;SDS011;37287;47.554;7.844;2024-02-04T00:41:47;1.90;;;1.80;;
50789;SDS011;37287;47.554;7.844;2024-02-04T00:44:14;1.70;;;1.60;;
50789;SDS011;37287;47.554;7.844;2024-02-04T00:46:40;1.55;;;1.45;;
50789;SDS011;37287;47.554;7.844;2024-02-04T00:49:07;1.67;;;1.58;;
50789;SDS011;37287;47.554;7.844;2024-02-04T00:51:34;1.75;;;1.65;;
50789;SDS011;37287;47.554;7.844;2024-02-04T00:54:01;1.60;;;1.50;;
50789;SDS011;37287;47.554;7.844;2024-02-04T00:56:28;1.60;;;1.50;;
50789;SDS011;37287;47.554;7.844;2024-02-04T00:58:54;2.03;;;1.80;;
50789;SDS011;37287;47.554;7.844;2024-02-04T01:01:21;1.73;;;1.60;;
50789;SDS011;37287;47.554;7.844;2024-02-04T01:03:48;2.35;;;1.30;;
50789;SDS011;37287;47.554;7.844;2024-02-04T01:06:15;1.52;;;1.27;;
50789;SDS011;37287;47.554;7.844;2024-02-04T01:08:42;1.45;;;1.35;;
50789;SDS011;37287;47.554;7.844;2024-02-04T01:11:08;1.40;;;1.30;;
50789;SDS011;37287;47.554;7.844;2024-02-04T01:13:35;1.60;;;1.42;;
50789;SDS011;37287;47.554;7.844;2024-02-04T01:16:02;1.52;;;1.42;;
50789;SDS011;37287;47.554;7.844;2024-02-04T01:18:29;1.50;;;1.40;;
50789;SDS011;37287;47.554;7.844;2024-02-04T01:20:58;1.50;;;1.35;;
50789;SDS011;37287;47.554;7.844;2024-02-04T01:23:26;1.83;;;1.50;;
50789;SDS011;37287;47.554;7.844;2024-02-04T01:25:53;1.50;;;1.40;;
50789;SDS011;37287;47.554;7.844;2024-02-04T01:28:20;2.10;;;1.42;;
50789;SDS011;37287;47.554;7.844;2024-02-04T01:30:46;2.92;;;1.30;;
50789;SDS011;37287;47.554;7.844;2024-02-04T01:33:13;0.95;;;0.95;;
50789;SDS011;37287;47.554;7.844;2024-02-04T01:35:40;1.10;;;1.10;;
50789;SDS011;37287;47.554;7.844;2024-02-04T01:38:06;1.10;;;1.00;;
50789;SDS011;37287;47.554;7.844;2024-02-04T01:40:33;0.90;;;0.90;;
50789;SDS011;37287;47.554;7.844;2024-02-04T01:43:00;0.88;;;0.88;;
50789;SDS011;37287;47.554;7.844;2024-02-04T01:45:27;1.00;;;1.00;;
50789;SDS011;37287;47.554;7.844;2024-02-04T01:47:53;0.75;;;0.75;;
50789;SDS011;37287;47.554;7.844;2024-02-04T01:50:20;0.82;;;0.82;;
50789;SDS011;37287;47.554;7.844;2024-02-04T01:52:48;0.68;;;0.68;;
50789;SDS011;37287;47.554;7.844;2024-02-04T01:55:17;0.93;;;0.90;;
50789;SDS011;37287;47.554;7.844;2024-02-04T01:57:45;1.52;;;0.80;;
50789;SDS011;37287;47.554;7.844;2024-02-04T02:00:14;1.90;;;1.23;;
50789;SDS011;37287;47.554;7.844;2024-02-04T02:02:41;1.10;;;1.00;;
50789;SDS011;37287;47.554;7.844;2024-02-04T02:05:09;0.90;;;0.90;;
50789;SDS011;37287;47.554;7.844;2024-02-04T02:07:37;0.80;;;0.80;;
50789;SDS011;37287;47.554;7.844;2024-02-04T02:10:04;1.20;;;0.90;;
50789;SDS011;37287;47.554;7.844;2024-02-04T02:12:38;1.08;;;0.98;;
50789;SDS011;37287;47.554;7.844;2024-02-04T02:15:11;1.10;;;1.00;;
50789;SDS011;37287;47.554;7.844;2024-02-04T02:17:44;1.65;;;0.88;;
50789;SDS011;37287;47.554;7.844;2024-02-04T02:20:21;0.80;;;0.80;;
50789;SDS011;37287;47.554;7.844;2024-02-04T02:23:05;0.80;;;0.80;;
50789;SDS011;37287;47.554;7.844;2024-02-04T02:25:33;1.15;;;0.90;;
50789;SDS011;37287;47.554;7.844;2024-02-04T02:28:02;1.02;;;0.80;;
50789;SDS011;37287;47.554;7.844;2024-02-04T02:30:29;0.65;;;0.60;;
50789;SDS011;37287;47.554;7.844;2024-02-04T02:32:56;0.50;;;0.50;;
50789;SDS011;37287;47.554;7.844;2024-02-04T02:35:23;0.45;;;0.43;;
50789;SDS011;37287;47.554;7.844;2024-02-04T02:40:32;0.50;;;0.50;;
50789;SDS011;37287;47.554;7.844;2024-02-04T02:43:03;1.27;;;0.60;;
50789;SDS011;37287;47.554;7.844;2024-02-04T02:45:31;0.30;;;0.30;;
50789;SDS011;37287;47.554;7.844;2024-02-04T02:47:59;0.60;;;0.60;;
50789;SDS011;37287;47.554;7.844;2024-02-04T02:50:27;0.45;;;0.45;;
50789;SDS011;37287;47.554;7.844;2024-02-04T02:52:54;0.47;;;0.47;;
50789;SDS011;37287;47.554;7.844;2024-02-04T02:55:21;0.60;;;0.60;;
50789;SDS011;37287;47.554;7.844;2024-02-04T02:57:47;0.50;;;0.50;;
50789;SDS011;37287;47.554;7.844;2024-02-04T03:00:14;0.40;;;0.40;;
50789;SDS011;37287;47.554;7.844;2024-02-04T03:02:41;0.40;;;0.40;;
50789;SDS011;37287;47.554;7.844;2024-02-04T03:05:08;0.98;;;0.50;;
50789;SDS011;37287;47.554;7.844;2024-02-04T03:07:35;0.47;;;0.47;;
50789;SDS011;37287;47.554;7.844;2024-02-04T03:10:01;0.40;;;0.40;;
50789;SDS011;37287;47.554;7.844;2024-02-04T03:12:29;0.60;;;0.60;;
50789;SDS011;37287;47.554;7.844;2024-02-04T03:14:56;0.30;;;0.30;;
50789;SDS011;37287;47.554;7.844;2024-02-04T03:17:23;0.77;;;0.65;;
50789;SDS011;37287;47.554;7.844;2024-02-04T03:19:50;0.50;;;0.50;;
50789;SDS011;37287;47.554;7.844;2024-02-04T03:22:23;0.43;;;0.43;;
50789;SDS011;37287;47.554;7.844;2024-02-04T03:24:50;0.50;;;0.50;;
50789;SDS011;37287;47.554;7.844;2024-02-04T03:27:20;0.40;;;0.40;;
50789;SDS011;37287;47.554;7.844;2024-02-04T03:29:47;0.77;;;0.68;;
50789;SDS011;37287;47.554;7.844;2024-02-04T03:32:14;0.80;;;0.80;;
50789;SDS011;37287;47.554;7.844;2024-02-04T03:34:41;0.90;;;0.63;;
50789;SDS011;37287;47.554;7.844;2024-02-04T03:37:08;0.75;;;0.70;;
50789;SDS011;37287;47.554;7.844;2024-02-04T03:39:35;0.60;;;0.60;;
50789;SDS011;37287;47.554;7.844;2024-02-04T03:42:02;0.80;;;0.80;;
50789;SDS011;37287;47.554;7.844;2024-02-04T03:44:28;0.70;;;0.70;;
50789;SDS011;37287;47.554;7.844;2024-02-04T03:46:55;0.60;;;0.60;;
50789;SDS011;37287;47.554;7.844;2024-02-04T03:49:22;0.55;;;0.55;;
50789;SDS011;37287;47.554;7.844;2024-02-04T03:51:48;0.68;;;0.65;;
50789;SDS011;37287;47.554;7.844;2024-02-04T03:54:15;0.50;;;0.50;;
50789;SDS011;37287;47.554;7.844;2024-02-04T03:56:42;0.50;;;0.50;;
50789;SDS011;37287;47.554;7.844;2024-02-04T03:59:09;0.50;;;0.50;;
50789;SDS011;37287;47.554;7.844;2024-02-04T04:01:37;0.70;;;0.60;;
50789;SDS011;37287;47.554;7.844;2024-02-04T04:04:04;0.45;;;0.45;;
50789;SDS011;37287;47.554;7.844;2024-02-04T04:06:31;0.47;;;0.47;;
50789;SDS011;37287;47.554;7.844;2024-02-04T04:08:58;0.60;;;0.60;;
50789;SDS011;37287;47.554;7.844;2024-02-04T04:11:25;0.50;;;0.50;;
50789;SDS011;37287;47.554;7.844;2024-02-04T04:13:52;0.40;;;0.40;;
50789;SDS011;37287;47.554;7.844;2024-02-04T04:16:22;0.57;;;0.57;;
50789;SDS011;37287;47.554;7.844;2024-02-04T04:18:49;0.50;;;0.50;;
50789;SDS011;37287;47.554;7.844;2024-02-04T04:21:16;0.60;;;0.60;;
50789;SDS011;37287;47.554;7.844;2024-02-04T04:23:43;0.50;;;0.50;;
50789;SDS011;37287;47.554;7.844;2024-02-04T04:26:10;0.47;;;0.47;;
50789;SDS011;37287;47.554;7.844;2024-02-04T04:28:37;0.60;;;0.60;;
50789;SDS011;37287;47.554;7.844;2024-02-04T04:31:03;0.60;;;0.60;;
50789;SDS011;37287;47.554;7.844;2024-02-04T04:33:31;0.50;;;0.50;;
50789;SDS011;37287;47.554;7.844;2024-02-04T11:33:08;0.52;;;0.52;;
50789;SDS011;37287;47.554;7.844;2024-02-04T11:35:38;0.85;;;0.30;;
50789;SDS011;37287;47.554;7.844;2024-02-04T11:38:05;0.30;;;0.30;;
50789;SDS011;37287;47.554;7.844;2024-02-04T11:40:35;0.47;;;0.30;;
50789;SDS011;37287;47.554;7.844;2024-02-04T11:43:04;0.30;;;0.20;;
50789;SDS011;37287;47.554;7.844;2024-02-04T11:45:32;0.50;;;0.40;;
50789;SDS011;37287;47.554;7.844;2024-02-04T11:48:01;0.38;;;0.38;;
50789;SDS011;37287;47.554;7.844;2024-02-04T11:50:31;0.30;;;0.30;;
50789;SDS011;37287;47.554;7.844;2024-02-04T11:53:02;0.50;;;0.32;;
50789;SDS011;37287;47.554;7.844;2024-02-04T11:55:33;0.20;;;0.20;;
50789;SDS011;37287;47.554;7.844;2024-02-04T11:58:00;0.88;;;0.30;;
50789;SDS011;37287;47.554;7.844;2024-02-04T12:00:27;0.32;;;0.32;;
50789;SDS011;37287;47.554;7.844;2024-02-04T12:03:01;0.57;;;0.50;;
50789;SDS011;37287;47.554;7.844;2024-02-04T12:08:01;0.70;;;0.50;;
50789;SDS011;37287;47.554;7.844;2024-02-04T12:10:29;0.52;;;0.35;;
50789;SDS011;37287;47.554;7.844;2024-02-04T12:13:04;0.70;;;0.70;;
50789;SDS011;37287;47.554;7.844;2024-02-04T12:15:35;0.38;;;0.38;;
50789;SDS011;37287;47.554;7.844;2024-02-04T12:18:10;0.63;;;0.50;;
50789;SDS011;37287;47.554;7.844;2024-02-04T12:20:38;0.20;;;0.20;;
50789;SDS011;37287;47.554;7.844;2024-02-04T12:23:05;0.52;;;0.30;;
50789;SDS011;37287;47.554;7.844;2024-02-04T12:25:33;0.55;;;0.43;;
50789;SDS011;37287;47.554;7.844;2024-02-04T12:28:02;0.25;;;0.25;;
50789;SDS011;37287;47.554;7.844;2024-02-04T12:30:30;0.60;;;0.40;;
50789;SDS011;37287;47.554;7.844;2024-02-04T12:33:00;0.38;;;0.38;;
50789;SDS011;37287;47.554;7.844;2024-02-04T12:35:51;0.40;;;0.30;;
50789;SDS011;37287;47.554;7.844;2024-02-04T12:38:18;1.17;;;0.40;;
50789;SDS011;37287;47.554;7.844;2024-02-04T12:40:45;0.40;;;0.30;;
50789;SDS011;37287;47.554;7.844;2024-02-04T12:43:12;0.77;;;0.60;;
50789;SDS011;37287;47.554;7.844;2024-02-04T12:45:39;0.50;;;0.40;;
50789;SDS011;37287;47.554;7.844;2024-02-04T12:48:06;2.55;;;0.60;;
50789;SDS011;37287;47.554;7.844;2024-02-04T12:50:36;0.70;;;0.50;;
50789;SDS011;37287;47.554;7.844;2024-02-04T12:53:05;1.27;;;0.75;;
50789;SDS011;37287;47.554;7.844;2024-02-04T12:55:34;0.75;;;0.40;;
50789;SDS011;37287;47.554;7.844;2024-02-04T13:00:31;0.50;;;0.43;;
50789;SDS011;37287;47.554;7.844;2024-02-04T13:02:59;0.52;;;0.52;;
50789;SDS011;37287;47.554;7.844;2024-02-04T13:05:29;0.57;;;0.40;;
50789;SDS011;37287;47.554;7.844;2024-02-04T13:07:59;0.40;;;0.40;;
50789;SDS011;37287;47.554;7.844;2024-02-04T13:10:29;0.55;;;0.55;;
50789;SDS011;37287;47.554;7.844;2024-02-04T13:12:58;0.90;;;0.52;;
50789;SDS011;37287;47.554;7.844;2024-02-04T13:15:27;2.03;;;0.77;;
50789;SDS011;37287;47.554;7.844;2024-02-04T13:17:55;0.40;;;0.40;;
50789;SDS011;37287;47.554;7.844;2024-02-04T13:20:22;0.73;;;0.60;;
50789;SDS011;37287;47.554;7.844;2024-02-04T13:22:49;0.70;;;0.70;;
50789;SDS011;37287;47.554;7.844;2024-02-04T13:25:16;1.05;;;0.90;;
50789;SDS011;37287;47.554;7.844;2024-02-04T13:27:43;0.90;;;0.60;;
50789;SDS011;37287;47.554;7.844;2024-02-04T13:30:10;1.17;;;0.70;;
50789;SDS011;37287;47.554;7.844;2024-02-04T13:32:39;1.20;;;0.60;;
50789;SDS011;37287;47.554;7.844;2024-02-04T13:35:07;1.75;;;0.82;;
50789;SDS011;37287;47.554;7.844;2024-02-04T13:37:45;0.70;;;0.70;;
50789;SDS011;37287;47.554;7.844;2024-02-04T13:40:14;1.65;;;1.08;;
50789;SDS011;37287;47.554;7.844;2024-02-04T13:42:42;1.23;;;0.90;;
50789;SDS011;37287;47.554;7.844;2024-02-04T13:45:09;0.80;;;0.80;;
50789;SDS011;37287;47.554;7.844;2024-02-04T13:47:37;1.40;;;0.82;;
50789;SDS011;37287;47.554;7.844;2024-02-04T13:50:04;0.75;;;0.75;;
50789;SDS011;37287;47.554;7.844;2024-02-04T13:52:31;1.08;;;0.70;;
50789;SDS011;37287;47.554;7.844;2024-02-04T13:54:58;1.17;;;0.90;;
50789;SDS011;37287;47.554;7.844;2024-02-04T13:57:25;1.60;;;0.80;;
50789;SDS011;37287;47.554;7.844;2024-02-04T13:59:52;2.40;;;0.77;;
50789;SDS011;37287;47.554;7.844;2024-02-04T14:02:18;1.50;;;0.95;;
50789;SDS011;37287;47.554;7.844;2024-02-04T14:04:45;0.80;;;0.80;;
50789;SDS011;37287;47.554;7.844;2024-02-04T14:07:12;0.63;;;0.63;;
50789;SDS011;37287;47.554;7.844;2024-02-04T14:09:39;1.38;;;0.80;;
50789;SDS011;37287;47.554;7.844;2024-02-04T14:12:06;1.08;;;0.75;;
50789;SDS011;37287;47.554;7.844;2024-02-04T14:14:33;1.08;;;0.70;;
50789;SDS011;37287;47.554;7.844;2024-02-04T14:17:00;1.40;;;0.95;;
50789;SDS011;37287;47.554;7.844;2024-02-04T14:19:27;1.02;;;0.80;;
50789;SDS011;37287;47.554;7.844;2024-02-04T14:21:53;1.67;;;0.98;;
50789;SDS011;37287;47.554;7.844;2024-02-04T14:24:21;0.98;;;0.80;;
50789;SDS011;37287;47.554;7.844;2024-02-04T14:26:48;2.70;;;0.70;;
50789;SDS011;37287;47.554;7.844;2024-02-04T14:29:15;3.15;;;1.10;;
50789;SDS011;37287;47.554;7.844;2024-02-04T14:31:42;1.75;;;0.90;;
50789;SDS011;37287;47.554;7.844;2024-02-04T14:34:09;1.02;;;0.80;;
50789;SDS011;37287;47.554;7.844;2024-02-04T14:36:36;2.08;;;0.85;;
50789;SDS011;37287;47.554;7.844;2024-02-04T14:39:03;1.38;;;0.77;;
50789;SDS011;37287;47.554;7.844;2024-02-04T14:41:34;1.33;;;0.80;;
50789;SDS011;37287;47.554;7.844;2024-02-04T14:44:02;2.92;;;0.80;;
50789;SDS011;37287;47.554;7.844;2024-02-04T14:46:29;2.95;;;1.10;;
50789;SDS011;37287;47.554;7.844;2024-02-04T14:48:56;2.33;;;0.90;;
50789;SDS011;37287;47.554;7.844;2024-02-04T14:51:22;2.35;;;0.70;;
50789;SDS011;37287;47.554;7.844;2024-02-04T14:53:49;0.85;;;0.70;;
50789;SDS011;37287;47.554;7.844;2024-02-04T14:56:16;1.52;;;1.10;;
50789;SDS011;37287;47.554;7.844;2024-02-04T14:58:43;1.77;;;1.02;;
50789;SDS011;37287;47.554;7.844;2024-02-04T15:01:09;1.88;;;0.98;;
50789;SDS011;37287;47.554;7.844;2024-02-04T15:03:36;0.95;;;0.82;;
50789;SDS011;37287;47.554;7.844;2024-02-04T15:06:03;3.60;;;1.20;;
50789;SDS011;37287;47.554;7.844;2024-02-04T15:08:31;1.65;;;0.80;;
50789;SDS011;37287;47.554;7.844;2024-02-04T15:10:58;2.35;;;1.10;;
50789;SDS011;37287;47.554;7.844;2024-02-04T15:13:25;1.67;;;1.13;;
50789;SDS011;37287;47.554;7.844;2024-02-04T15:15:55;3.47;;;1.10;;
50789;SDS011;37287;47.554;7.844;2024-02-04T15:18:22;3.45;;;1.20;;
50789;SDS011;37287;47.554;7.844;2024-02-04T15:20:49;2.83;;;1.05;;
50789;SDS011;37287;47.554;7.844;2024-02-04T15:23:16;2.80;;;1.40;;
50789;SDS011;37287;47.554;7.844;2024-02-04T15:25:43;2.30;;;1.10;;
50789;SDS011;37287;47.554;7.844;2024-02-04T15:28:10;1.27;;;1.08;;
50789;SDS011;37287;47.554;7.844;2024-02-04T15:30:39;1.60;;;1.00;;
50789;SDS011;37287;47.554;7.844;2024-02-04T15:33:07;1.25;;;1.15;;
50789;SDS011;37287;47.554;7.844;2024-02-04T15:35:34;2.42;;;1.20;;
50789;SDS011;37287;47.554;7.844;2024-02-04T15:38:01;1.90;;;1.20;;
50789;SDS011;37287;47.554;7.844;2024-02-04T15:40:29;1.63;;;1.15;;
50789;SDS011;37287;47.554;7.844;2024-02-04T15:42:55;2.45;;;1.40;;
50789;SDS011;37287;47.554;7.844;2024-02-04T15:45:22;2.25;;;1.08;;
50789;SDS011;37287;47.554;7.844;2024-02-04T15:47:50;6.40;;;1.50;;
50789;SDS011;37287;47.554;7.844;2024-02-04T15:50:20;1.27;;;1.10;;
50789;SDS011;37287;47.554;7.844;2024-02-04T15:52:47;2.92;;;1.38;;
50789;SDS011;37287;47.554;7.844;2024-02-04T15:55:15;2.67;;;1.70;;
50789;SDS011;37287;47.554;7.844;2024-02-04T15:57:50;3.33;;;1.40;;
50789;SDS011;37287;47.554;7.844;2024-02-04T16:00:18;3.80;;;1.90;;
50789;SDS011;37287;47.554;7.844;2024-02-04T16:02:49;5.05;;;1.70;;
50789;SDS011;37287;47.554;7.844;2024-02-04T16:05:16;1.95;;;1.60;;
50789;SDS011;37287;47.554;7.844;2024-02-04T16:07:44;3.33;;;1.17;;
50789;SDS011;37287;47.554;7.844;2024-02-04T16:10:13;2.22;;;1.40;;
50789;SDS011;37287;47.554;7.844;2024-02-04T16:12:52;1.73;;;1.20;;
50789;SDS011;37287;47.554;7.844;2024-02-04T16:15:20;8.30;;;0.93;;
50789;SDS011;37287;47.554;7.844;2024-02-04T16:17:49;3.17;;;1.60;;
50789;SDS011;37287;47.554;7.844;2024-02-04T16:20:16;2.40;;;1.40;;
50789;SDS011;37287;47.554;7.844;2024-02-04T16:22:45;2.58;;;1.75;;
50789;SDS011;37287;47.554;7.844;2024-02-04T16:25:16;4.18;;;1.50;;
50789;SDS011;37287;47.554;7.844;2024-02-04T16:27:43;1.90;;;1.30;;
50789;SDS011;37287;47.554;7.844;2024-02-04T16:30:11;1.80;;;1.60;;
50789;SDS011;37287;47.554;7.844;2024-02-04T16:32:39;1.75;;;1.55;;
50789;SDS011;37287;47.554;7.844;2024-02-04T16:35:06;2.63;;;1.58;;
50789;SDS011;37287;47.554;7.844;2024-02-04T16:37:34;5.30;;;2.13;;
50789;SDS011;37287;47.554;7.844;2024-02-04T16:40:01;2.78;;;2.08;;
50789;SDS011;37287;47.554;7.844;2024-02-04T16:42:27;3.00;;;2.38;;
50789;SDS011;37287;47.554;7.844;2024-02-04T16:44:57;4.90;;;1.98;;
50789;SDS011;37287;47.554;7.844;2024-02-04T16:47:25;2.67;;;2.20;;
50789;SDS011;37287;47.554;7.844;2024-02-04T16:49:52;3.63;;;2.35;;
50789;SDS011;37287;47.554;7.844;2024-02-04T16:52:19;2.70;;;2.20;;
50789;SDS011;37287;47.554;7.844;2024-02-04T16:54:46;3.33;;;2.80;;
50789;SDS011;37287;47.554;7.844;2024-02-04T16:57:12;4.38;;;2.58;;
50789;SDS011;37287;47.554;7.844;2024-02-04T16:59:39;4.82;;;2.45;;
50789;SDS011;37287;47.554;7.844;2024-02-04T17:02:12;2.22;;;2.00;;
50789;SDS011;37287;47.554;7.844;2024-02-04T17:04:45;3.85;;;2.10;;
50789;SDS011;37287;47.554;7.844;2024-02-04T17:07:16;3.03;;;2.40;;
50789;SDS011;37287;47.554;7.844;2024-02-04T17:09:47;3.03;;;2.40;;
50789;SDS011;37287;47.554;7.844;2024-02-04T17:12:19;3.33;;;2.60;;
50789;SDS011;37287;47.554;7.844;2024-02-04T17:14:46;3.97;;;2.95;;
50789;SDS011;37287;47.554;7.844;2024-02-04T17:17:14;5.00;;;3.10;;
50789;SDS011;37287;47.554;7.844;2024-02-04T17:22:43;4.07;;;2.75;;
50789;SDS011;37287;47.554;7.844;2024-02-04T17:25:12;3.17;;;2.40;;
50789;SDS011;37287;47.554;7.844;2024-02-04T17:27:45;5.80;;;2.67;;
50789;SDS011;37287;47.554;7.844;2024-02-04T17:30:12;6.43;;;2.70;;
50789;SDS011;37287;47.554;7.844;2024-02-04T17:32:42;5.95;;;2.80;;
50789;SDS011;37287;47.554;7.844;2024-02-04T17:35:14;4.53;;;2.90;;
50789;SDS011;37287;47.554;7.844;2024-02-04T17:37:42;3.45;;;2.40;;
50789;SDS011;37287;47.554;7.844;2024-02-04T17:40:10;3.78;;;2.38;;
50789;SDS011;37287;47.554;7.844;2024-02-04T17:42:37;4.20;;;2.40;;
50789;SDS011;37287;47.554;7.844;2024-02-04T17:45:06;2.78;;;2.13;;
50789;SDS011;37287;47.554;7.844;2024-02-04T17:47:35;4.15;;;2.35;;
50789;SDS011;37287;47.554;7.844;2024-02-04T17:50:02;2.97;;;2.08;;
50789;SDS011;37287;47.554;7.844;2024-02-04T17:52:29;3.15;;;2.45;;
50789;SDS011;37287;47.554;7.844;2024-02-04T17:54:56;2.40;;;2.20;;
50789;SDS011;37287;47.554;7.844;2024-02-04T17:57:27;3.97;;;2.00;;
50789;SDS011;37287;47.554;7.844;2024-02-04T17:59:58;3.17;;;2.22;;
50789;SDS011;37287;47.554;7.844;2024-02-04T18:02:25;3.75;;;2.40;;
50789;SDS011;37287;47.554;7.844;2024-02-04T18:07:38;4.63;;;2.30;;
50789;SDS011;37287;47.554;7.844;2024-02-04T18:10:07;3.63;;;2.30;;
50789;SDS011;37287;47.554;7.844;2024-02-04T18:12:34;2.40;;;2.10;;
50789;SDS011;37287;47.554;7.844;2024-02-04T18:15:01;3.65;;;2.78;;
50789;SDS011;37287;47.554;7.844;2024-02-04T18:17:31;3.40;;;2.65;;
50789;SDS011;37287;47.554;7.844;2024-02-04T18:20:00;3.40;;;2.67;;
50789;SDS011;37287;47.554;7.844;2024-02-04T18:22:32;3.55;;;2.30;;
50789;SDS011;37287;47.554;7.844;2024-02-04T18:24:59;4.38;;;2.95;;
50789;SDS011;37287;47.554;7.844;2024-02-04T18:27:26;4.57;;;3.00;;
50789;SDS011;37287;47.554;7.844;2024-02-04T18:29:52;3.63;;;3.08;;
50789;SDS011;37287;47.554;7.844;2024-02-04T18:32:20;4.30;;;2.95;;
50789;SDS011;37287;47.554;7.844;2024-02-04T18:34:50;4.60;;;2.80;;
50789;SDS011;37287;47.554;7.844;2024-02-04T18:37:22;3.17;;;2.58;;
50789;SDS011;37287;47.554;7.844;2024-02-04T18:39:49;3.53;;;2.80;;
50789;SDS011;37287;47.554;7.844;2024-02-04T18:42:16;4.25;;;2.60;;
50789;SDS011;37287;47.554;7.844;2024-02-04T18:44:43;5.43;;;3.20;;
50789;SDS011;37287;47.554;7.844;2024-02-04T18:47:10;4.85;;;3.30;;
50789;SDS011;37287;47.554;7.844;2024-02-04T18:49:36;3.38;;;2.40;;
50789;SDS011;37287;47.554;7.844;2024-02-04T18:52:03;3.40;;;2.90;;
50789;SDS011;37287;47.554;7.844;2024-02-04T18:54:35;4.55;;;2.80;;
50789;SDS011;37287;47.554;7.844;2024-02-04T18:57:02;3.50;;;2.70;;
50789;SDS011;37287;47.554;7.844;2024-02-04T18:59:33;2.67;;;2.47;;
50789;SDS011;37287;47.554;7.844;2024-02-04T19:02:02;3.22;;;2.50;;
50789;SDS011;37287;47.554;7.844;2024-02-04T19:04:29;6.97;;;2.78;;
50789;SDS011;37287;47.554;7.844;2024-02-04T19:06:56;3.88;;;2.65;;
50789;SDS011;37287;47.554;7.844;2024-02-04T19:09:26;6.03;;;2.85;;
50789;SDS011;37287;47.554;7.844;2024-02-04T19:11:53;3.10;;;2.78;;
50789;SDS011;37287;47.554;7.844;2024-02-04T19:14:19;3.33;;;2.80;;
50789;SDS011;37287;47.554;7.844;2024-02-04T19:16:48;6.00;;;3.28;;
50789;SDS011;37287;47.554;7.844;2024-02-04T19:19:15;6.50;;;2.90;;
50789;SDS011;37287;47.554;7.844;2024-02-04T19:21:45;2.83;;;2.53;;
50789;SDS011;37287;47.554;7.844;2024-02-04T19:24:16;5.32;;;2.60;;
50789;SDS011;37287;47.554;7.844;2024-02-04T19:26:44;6.68;;;2.30;;
50789;SDS011;37287;47.554;7.844;2024-02-04T19:29:15;5.07;;;2.47;;
50789;SDS011;37287;47.554;7.844;2024-02-04T19:31:45;3.10;;;2.78;;
50789;SDS011;37287;47.554;7.844;2024-02-04T19:34:11;3.45;;;2.95;;
50789;SDS011;37287;47.554;7.844;2024-02-04T19:36:38;3.60;;;2.47;;
50789;SDS011;37287;47.554;7.844;2024-02-04T19:39:07;3.95;;;2.53;;
50789;SDS011;37287;47.554;7.844;2024-02-04T19:41:34;2.70;;;2.40;;
50789;SDS011;37287;47.554;7.844;2024-02-04T19:44:01;3.45;;;2.33;;
50789;SDS011;37287;47.554;7.844;2024-02-04T19:46:27;3.63;;;2.60;;
50789;SDS011;37287;47.554;7.844;2024-02-04T19:48:54;3.00;;;2.10;;
50789;SDS011;37287;47.554;7.844;2024-02-04T19:51:21;2.60;;;2.20;;
50789;SDS011;37287;47.554;7.844;2024-02-04T19:53:48;4.03;;;2.45;;
50789;SDS011;37287;47.554;7.844;2024-02-04T19:56:14;2.60;;;2.20;;
50789;SDS011;37287;47.554;7.844;2024-02-04T19:58:41;3.25;;;2.83;;
50789;SDS011;37287;47.554;7.844;2024-02-04T20:01:08;3.13;;;2.60;;
50789;SDS011;37287;47.554;7.844;2024-02-04T20:03:34;2.42;;;2.22;;
50789;SDS011;37287;47.554;7.844;2024-02-04T20:06:01;3.47;;;2.67;;
50789;SDS011;37287;47.554;7.844;2024-02-04T20:08:28;4.07;;;2.90;;
50789;SDS011;37287;47.554;7.844;2024-02-04T20:10:55;5.70;;;2.75;;
50789;SDS011;37287;47.554;7.844;2024-02-04T20:13:22;5.57;;;2.58;;
50789;SDS011;37287;47.554;7.844;2024-02-04T20:15:49;3.13;;;2.45;;
50789;SDS011;37287;47.554;7.844;2024-02-04T20:18:16;3.38;;;2.65;;
50789;SDS011;37287;47.554;7.844;2024-02-04T20:20:42;3.90;;;3.00;;
50789;SDS011;37287;47.554;7.844;2024-02-04T20:23:09;9.52;;;3.28;;
50789;SDS011;37287;47.554;7.844;2024-02-04T20:25:36;4.43;;;2.80;;
50789;SDS011;37287;47.554;7.844;2024-02-04T20:28:05;6.30;;;2.75;;
50789;SDS011;37287;47.554;7.844;2024-02-04T20:30:32;3.90;;;2.65;;
50789;SDS011;37287;47.554;7.844;2024-02-04T20:32:59;5.43;;;2.80;;
50789;SDS011;37287;47.554;7.844;2024-02-04T20:35:26;4.65;;;3.08;;
50789;SDS011;37287;47.554;7.844;2024-02-04T20:37:55;2.88;;;2.53;;
50789;SDS011;37287;47.554;7.844;2024-02-04T20:40:26;4.95;;;2.60;;
50789;SDS011;37287;47.554;7.844;2024-02-04T20:42:53;5.35;;;2.80;;
50789;SDS011;37287;47.554;7.844;2024-02-04T20:45:20;2.70;;;2.50;;
50789;SDS011;37287;47.554;7.844;2024-02-04T20:47:47;6.75;;;3.28;;
50789;SDS011;37287;47.554;7.844;2024-02-04T20:50:20;3.33;;;2.72;;
50789;SDS011;37287;47.554;7.844;2024-02-04T20:52:47;3.58;;;3.00;;
50789;SDS011;37287;47.554;7.844;2024-02-04T20:55:15;3.92;;;2.88;;
50789;SDS011;37287;47.554;7.844;2024-02-04T20:57:42;5.25;;;2.95;;
50789;SDS011;37287;47.554;7.844;2024-02-04T21:00:09;5.63;;;3.10;;
50789;SDS011;37287;47.554;7.844;2024-02-04T21:02:37;3.53;;;2.80;;
50789;SDS011;37287;47.554;7.844;2024-02-04T21:05:06;3.95;;;2.90;;
50789;SDS011;37287;47.554;7.844;2024-02-04T21:07:32;5.20;;;3.10;;
50789;SDS011;37287;47.554;7.844;2024-02-04T21:09:59;3.55;;;2.80;;
50789;SDS011;37287;47.554;7.844;2024-02-04T21:12:26;5.35;;;3.25;;
50789;SDS011;37287;47.554;7.844;2024-02-04T21:14:53;5.60;;;3.05;;
50789;SDS011;37287;47.554;7.844;2024-02-04T21:17:21;3.10;;;2.78;;
50789;SDS011;37287;47.554;7.844;2024-02-04T21:20:12;3.17;;;2.80;;
50789;SDS011;37287;47.554;7.844;2024-02-04T21:22:39;4.45;;;2.83;;
50789;SDS011;37287;47.554;7.844;2024-02-04T21:25:06;3.65;;;2.90;;
50789;SDS011;37287;47.554;7.844;2024-02-04T21:27:33;5.28;;;3.22;;
50789;SDS011;37287;47.554;7.844;2024-02-04T21:30:00;4.70;;;3.63;;
50789;SDS011;37287;47.554;7.844;2024-02-04T21:32:27;4.43;;;2.90;;
50789;SDS011;37287;47.554;7.844;2024-02-04T21:34:54;3.10;;;2.80;;
50789;SDS011;37287;47.554;7.844;2024-02-04T21:37:21;3.00;;;2.67;;
50789;SDS011;37287;47.554;7.844;2024-02-04T21:39:48;3.90;;;3.17;;
50789;SDS011;37287;47.554;7.844;2024-02-04T21:42:15;4.18;;;2.33;;
50789;SDS011;37287;47.554;7.844;2024-02-04T21:44:42;4.80;;;3.00;;
50789;SDS011;37287;47.554;7.844;2024-02-04T21:47:10;4.82;;;2.90;;
50789;SDS011;37287;47.554;7.844;2024-02-04T21:49:46;3.65;;;2.50;;
50789;SDS011;37287;47.554;7.844;2024-02-04T21:52:12;3.88;;;2.70;;
50789;SDS011;37287;47.554;7.844;2024-02-04T21:54:41;3.28;;;2.15;;
50789;SDS011;37287;47.554;7.844;2024-02-04T21:57:08;3.63;;;2.50;;
50789;SDS011;37287;47.554;7.844;2024-02-04T21:59:34;2.47;;;2.25;;
50789;SDS011;37287;47.554;7.844;2024-02-04T22:02:01;4.45;;;2.47;;